createdAt,value
2022-10-15T00:01:55.356Z,99820.28
2022-10-15T00:04:27.589Z,99814.25
2022-10-15T00:06:57.094Z,99804.69
2022-10-15T00:09:26.647Z,99801.19
2022-10-15T00:11:56.659Z,99798.53
2022-10-15T00:14:26.312Z,99791.44
2022-10-15T00:16:55.809Z,99789.13
2022-10-15T00:19:27.939Z,99795.44
2022-10-15T00:21:57.559Z,99793.47
2022-10-15T00:24:27.253Z,99792.19
2022-10-15T00:26:56.851Z,99786.78
2022-10-15T00:29:26.364Z,99794.75
2022-10-15T00:31:57.892Z,99789.44
2022-10-15T00:34:30.607Z,99785.72
2022-10-15T00:37:01.372Z,99769.72
2022-10-15T00:39:31.013Z,99783.81
2022-10-15T00:42:00.552Z,99782.78
2022-10-15T00:44:56.236Z,99778.50
2022-10-15T00:47:33.219Z,99780.13
2022-10-15T00:50:08.680Z,99780.13
2022-10-15T00:52:42.829Z,99776.53
2022-10-15T00:55:15.683Z,99776.53
2022-10-15T00:57:46.816Z,99783.41
2022-10-15T01:00:18.262Z,99791.75
2022-10-15T01:02:48.518Z,99791.00
2022-10-15T01:05:22.348Z,99791.75
2022-10-15T01:07:51.971Z,99789.44
2022-10-15T01:10:23.528Z,99791.75
2022-10-15T01:12:58.891Z,99786.34
2022-10-15T01:15:30.743Z,99783.94
2022-10-15T01:18:04.560Z,99787.50
2022-10-15T01:20:50.384Z,99781.22
2022-10-15T01:24:01.198Z,99783.88
2022-10-15T01:27:02.899Z,99785.19
2022-10-15T01:29:50.144Z,99788.78
2022-10-15T01:32:29.066Z,99784.44
2022-10-15T01:35:03.209Z,99791.53
2022-10-15T01:37:39.847Z,99786.25
2022-10-15T01:40:12.592Z,99795.97
2022-10-15T01:42:47.839Z,99804.69
2022-10-15T01:45:25.316Z,99799.28
2022-10-15T01:48:31.335Z,99803.16
2022-10-15T01:51:03.956Z,99797.97
2022-10-15T01:53:35.254Z,99801.47
2022-10-15T01:56:09.601Z,99799.41
2022-10-15T01:58:41.970Z,99797.06
2022-10-15T02:01:11.870Z,99792.63
2022-10-15T02:03:52.316Z,99792.84
2022-10-15T02:06:26.323Z,99794.63
2022-10-15T02:09:03.193Z,99793.78
2022-10-15T02:11:33.148Z,99782.47
2022-10-15T02:14:04.883Z,99783.41
2022-10-15T02:16:40.363Z,99782.53
2022-10-15T02:19:17.115Z,99778.00
2022-10-15T02:21:49.953Z,99771.75
2022-10-15T02:24:23.026Z,99782.34
2022-10-15T02:26:54.309Z,99785.94
2022-10-15T02:29:26.571Z,99780.00
2022-10-15T02:31:57.218Z,99776.41
2022-10-15T02:34:33.514Z,99774.63
2022-10-15T02:37:06.283Z,99775.47
2022-10-15T02:39:36.851Z,99770.25
2022-10-15T02:42:06.997Z,99766.88
2022-10-15T02:44:36.566Z,99773.00
2022-10-15T02:47:06.201Z,99770.56
2022-10-15T02:49:38.392Z,99780.31
2022-10-15T02:52:08.631Z,99786.13
2022-10-15T02:54:38.279Z,99793.91
2022-10-15T02:57:07.937Z,99800.31
2022-10-15T02:59:38.025Z,99788.78
2022-10-15T03:02:07.977Z,99784.22
2022-10-15T03:04:40.288Z,99783.47
2022-10-15T03:07:09.970Z,99783.47
2022-10-15T03:09:39.629Z,99777.44
2022-10-15T03:12:09.899Z,99771.19
2022-10-15T03:14:39.622Z,99777.34
2022-10-15T03:17:09.223Z,99781.66
2022-10-15T03:19:41.482Z,99780.50
2022-10-15T03:22:11.215Z,99777.13
2022-10-15T03:24:50.961Z,99764.00
2022-10-15T03:27:26.290Z,99761.22
2022-10-15T03:29:56.638Z,99770.75
2022-10-15T03:32:30.299Z,99767.94
2022-10-15T03:35:04.160Z,99760.72
2022-10-15T03:37:35.431Z,99751.94
2022-10-15T03:40:09.219Z,99739.66
2022-10-15T03:42:41.355Z,99741.56
2022-10-15T03:45:13.480Z,99737.19
2022-10-15T03:47:43.339Z,99745.25
2022-10-15T03:50:15.828Z,99744.41
2022-10-15T03:52:46.121Z,99748.75
2022-10-15T03:55:16.886Z,99743.56
2022-10-15T03:57:47.586Z,99749.00
2022-10-15T04:00:18.525Z,99749.72
2022-10-15T04:02:51.455Z,99760.22
2022-10-15T04:05:30.538Z,99741.78
2022-10-15T04:08:05.740Z,99735.75
2022-10-15T04:10:39.222Z,99742.75
2022-10-15T04:13:10.291Z,99747.50
2022-10-15T04:15:42.050Z,99751.66
2022-10-15T04:18:15.530Z,99755.03
2022-10-15T04:20:47.881Z,99750.56
2022-10-15T04:23:22.970Z,99753.34
2022-10-15T04:26:11.225Z,99758.53
2022-10-15T04:28:41.276Z,99762.00
2022-10-15T04:31:11.554Z,99760.50
2022-10-15T04:33:42.824Z,99756.16
2022-10-15T04:39:13.819Z,99762.41
2022-10-15T04:41:46.398Z,99762.41
2022-10-15T04:44:28.495Z,99761.34
2022-10-15T04:47:00.127Z,99764.78
2022-10-15T04:49:47.858Z,99769.75
2022-10-15T04:52:41.252Z,99767.94
2022-10-15T04:55:14.346Z,99769.66
2022-10-15T04:57:44.053Z,99759.91
2022-10-15T05:00:16.200Z,99766.06
2022-10-15T05:02:45.926Z,99765.94
2022-10-15T05:05:31.295Z,99765.84
2022-10-15T05:08:08.052Z,99766.69
2022-10-15T05:10:57.321Z,99764.16
2022-10-15T05:13:27.062Z,99754.41
2022-10-15T05:15:57.787Z,99749.75
2022-10-15T05:18:27.509Z,99745.09
2022-10-15T05:20:57.336Z,99745.88
2022-10-15T05:23:29.524Z,99734.75
2022-10-15T05:26:14.939Z,99737.50
2022-10-15T05:28:44.795Z,99725.97
2022-10-15T05:31:25.051Z,99732.00
2022-10-15T05:34:03.414Z,99728.38
2022-10-15T05:36:38.450Z,99741.41
2022-10-15T05:39:12.233Z,99738.56
2022-10-15T05:41:46.899Z,99737.28
2022-10-15T05:44:17.076Z,99736.44
2022-10-15T05:46:46.657Z,99750.75
2022-10-15T05:49:22.314Z,99752.66
2022-10-15T05:52:10.465Z,99757.19
2022-10-15T05:55:04.416Z,99754.72
2022-10-15T05:57:33.955Z,99758.25
2022-10-15T06:00:07.436Z,99757.00
2022-10-15T06:02:42.886Z,99750.00
2022-10-15T06:05:12.610Z,99768.34
2022-10-15T06:07:42.124Z,99769.28
2022-10-15T06:10:14.383Z,99767.59
2022-10-15T06:12:44.386Z,99770.03
2022-10-15T06:15:14.264Z,99770.13
2022-10-15T06:17:43.816Z,99764.84
2022-10-15T06:20:14.603Z,99767.50
2022-10-15T06:22:44.141Z,99763.03
2022-10-15T06:25:16.381Z,99762.75
2022-10-15T06:27:45.913Z,99772.81
2022-10-15T06:30:15.418Z,99769.94
2022-10-15T06:32:50.196Z,99771.72
2022-10-15T06:35:20.891Z,99782.00
2022-10-15T06:37:50.643Z,99782.84
2022-10-15T06:40:22.880Z,99782.13
2022-10-15T06:42:52.399Z,99778.31
2022-10-15T06:45:22.047Z,99790.25
2022-10-15T06:47:51.638Z,99789.00
2022-10-15T06:50:21.256Z,99783.81
2022-10-15T06:52:50.858Z,99785.19
2022-10-15T06:55:23.124Z,99794.00
2022-10-15T06:57:52.791Z,99788.72
2022-10-15T07:00:26.027Z,99785.09
2022-10-15T07:02:56.687Z,99789.53
2022-10-15T07:05:26.348Z,99794.84
2022-10-15T07:07:56.447Z,99788.28
2022-10-15T07:10:30.327Z,99789.00
2022-10-15T07:13:03.041Z,99782.88
2022-10-15T07:15:32.643Z,99786.06
2022-10-15T07:18:04.054Z,99796.22
2022-10-15T07:20:33.928Z,99796.56
2022-10-15T07:23:04.833Z,99783.50
2022-10-15T07:25:39.347Z,99796.22
2022-10-15T07:28:09.087Z,99790.59
2022-10-15T07:30:38.779Z,99794.09
2022-10-15T07:33:08.544Z,99794.63
2022-10-15T07:35:39.970Z,99787.13
2022-10-15T07:38:09.639Z,99787.63
2022-10-15T07:40:41.748Z,99790.06
2022-10-15T07:43:11.335Z,99803.03
2022-10-15T07:45:43.123Z,99798.88
2022-10-15T07:48:12.674Z,99783.88
2022-10-15T07:50:42.427Z,99801.59
2022-10-15T07:53:12.093Z,99793.97
2022-10-15T07:55:44.995Z,99786.88
2022-10-15T07:58:14.546Z,99793.75
2022-10-15T08:00:44.101Z,99786.41
2022-10-15T08:03:13.646Z,99787.72
2022-10-15T08:05:43.291Z,99786.00
2022-10-15T08:08:13.001Z,99777.06
2022-10-15T08:10:45.150Z,99770.59
2022-10-15T08:13:14.944Z,99776.53
2022-10-15T08:15:47.433Z,99780.66
2022-10-15T08:18:17.005Z,99777.47
2022-10-15T08:20:46.576Z,99763.00
2022-10-15T08:23:17.892Z,99751.78
2022-10-15T08:25:50.286Z,99756.53
2022-10-15T08:28:19.823Z,99763.22
2022-10-15T08:30:49.436Z,99773.00
2022-10-15T08:33:18.945Z,99768.50
2022-10-15T08:35:48.506Z,99761.19
2022-10-15T08:38:19.831Z,99765.94
2022-10-15T08:40:54.767Z,99761.03
2022-10-15T08:43:27.304Z,99747.06
2022-10-15T08:45:59.513Z,99761.34
2022-10-15T08:48:32.928Z,99759.28
2022-10-15T08:51:05.754Z,99760.53
2022-10-15T08:53:40.667Z,99762.38
2022-10-15T08:56:17.010Z,99763.72
2022-10-15T08:58:50.769Z,99767.72
2022-10-15T09:01:24.804Z,99765.56
2022-10-15T09:04:01.472Z,99749.38
2022-10-15T09:06:35.780Z,99755.94
2022-10-15T09:09:10.915Z,99753.16
2022-10-15T09:11:49.708Z,99753.53
2022-10-15T09:14:21.708Z,99753.91
2022-10-15T09:16:52.684Z,99751.38
2022-10-15T09:19:24.163Z,99754.25
2022-10-15T09:21:54.844Z,99743.28
2022-10-15T09:24:25.595Z,99737.75
2022-10-15T09:27:07.509Z,99738.97
2022-10-15T09:29:43.314Z,99737.38
2022-10-15T09:32:17.632Z,99741.47
2022-10-15T09:34:51.384Z,99732.66
2022-10-15T09:37:26.070Z,99727.97
2022-10-15T09:40:32.249Z,99727.97
2022-10-15T09:43:04.770Z,99713.56
2022-10-15T09:45:35.151Z,99716.31
2022-10-15T09:48:05.078Z,99715.13
2022-10-15T09:50:42.226Z,99727.06
2022-10-15T09:53:23.362Z,99717.88
2022-10-15T09:56:00.677Z,99719.19
2022-10-15T09:58:46.998Z,99719.94
2022-10-15T10:01:20.872Z,99727.94
2022-10-15T10:03:54.897Z,99715.59
2022-10-15T10:06:26.067Z,99720.31
2022-10-15T10:08:59.314Z,99717.59
2022-10-15T10:11:30.065Z,99711.00
2022-10-15T10:14:03.798Z,99697.63
2022-10-15T10:16:33.829Z,99700.78
2022-10-15T10:19:13.437Z,99704.72
2022-10-15T10:21:46.252Z,99683.56
2022-10-15T10:24:32.071Z,99689.94
2022-10-15T10:27:02.640Z,99690.03
2022-10-15T10:29:39.335Z,99690.03
2022-10-15T10:32:14.303Z,99679.16
2022-10-15T10:34:51.524Z,99684.69
2022-10-15T10:37:22.998Z,99688.34
2022-10-15T10:39:56.706Z,99697.56
2022-10-15T10:42:38.104Z,99687.75
2022-10-15T10:45:20.912Z,99684.75
2022-10-15T10:47:50.647Z,99683.44
2022-10-15T10:50:32.486Z,99674.16
2022-10-15T10:53:14.495Z,99665.44
2022-10-15T10:55:45.031Z,99679.78
2022-10-15T10:58:24.977Z,99661.41
2022-10-15T11:01:00.696Z,99674.44
2022-10-15T11:03:35.961Z,99673.59
2022-10-15T11:06:15.325Z,99672.91
2022-10-15T11:08:53.968Z,99683.41
2022-10-15T11:11:26.446Z,99680.03
2022-10-15T11:14:03.908Z,99679.06
2022-10-15T11:16:43.516Z,99672.75
2022-10-15T11:19:50.369Z,99671.66
2022-10-15T11:22:29.743Z,99668.72
2022-10-15T11:25:07.552Z,99670.69
2022-10-15T11:27:49.515Z,99669.72
2022-10-15T11:30:32.853Z,99653.38
2022-10-15T11:33:17.142Z,99651.91
2022-10-15T11:35:54.210Z,99657.72
2022-10-15T11:38:31.007Z,99667.75
2022-10-15T11:41:14.628Z,99654.28
2022-10-15T11:43:56.336Z,99644.00
2022-10-15T11:46:30.887Z,99641.81
2022-10-15T11:49:17.293Z,99640.81
2022-10-15T11:52:01.024Z,99639.13
2022-10-15T11:54:35.056Z,99632.84
2022-10-15T11:57:07.213Z,99631.84
2022-10-15T11:59:40.288Z,99635.94
2022-10-15T12:02:14.858Z,99646.78
2022-10-15T12:04:49.516Z,99630.47
2022-10-15T12:07:23.756Z,99629.63
2022-10-15T12:09:56.269Z,99638.59
2022-10-15T12:12:33.810Z,99630.19
2022-10-15T12:15:15.268Z,99624.88
2022-10-15T12:17:49.511Z,99624.28
2022-10-15T12:20:23.794Z,99620.16
2022-10-15T12:23:00.427Z,99617.22
2022-10-15T12:25:46.062Z,99608.25
2022-10-15T12:28:19.973Z,99607.72
2022-10-15T12:31:10.475Z,99603.69
2022-10-15T12:33:42.572Z,99613.94
2022-10-15T12:36:28.449Z,99603.56
2022-10-15T12:39:07.906Z,99605.44
2022-10-15T12:41:48.108Z,99603.59
2022-10-15T12:44:23.724Z,99597.75
2022-10-15T12:46:54.420Z,99596.38
2022-10-15T12:49:48.873Z,99597.38
2022-10-15T12:52:48.499Z,99588.25
2022-10-15T12:55:25.499Z,99588.63
2022-10-15T12:58:01.382Z,99591.91
2022-10-15T13:00:45.267Z,99584.47
2022-10-15T13:03:41.427Z,99594.00
2022-10-15T13:06:27.746Z,99586.75
2022-10-15T13:08:59.870Z,99582.66
2022-10-15T13:11:32.062Z,99594.63
2022-10-15T13:14:06.234Z,99587.09
2022-10-15T13:16:38.785Z,99594.66
2022-10-15T13:19:08.362Z,99600.75
2022-10-15T13:21:52.302Z,99588.28
2022-10-15T13:24:23.948Z,99594.09
2022-10-15T13:26:54.241Z,99586.50
2022-10-15T13:29:26.030Z,99582.16
2022-10-15T13:32:00.696Z,99583.03
2022-10-15T13:34:32.465Z,99585.84
2022-10-15T13:37:03.513Z,99591.19
2022-10-15T13:39:35.580Z,99572.91
2022-10-15T13:42:11.370Z,99580.06
2022-10-15T13:44:40.944Z,99583.16
2022-10-15T13:47:30.181Z,99589.34
2022-10-15T13:50:20.035Z,99590.59
2022-10-15T13:52:52.224Z,99584.03
2022-10-15T13:55:28.390Z,99587.78
2022-10-15T13:58:02.295Z,99586.41
2022-10-15T14:00:34.720Z,99578.94
2022-10-15T14:03:17.798Z,99593.84
2022-10-15T14:05:48.582Z,99586.25
2022-10-15T14:08:22.583Z,99578.69
2022-10-15T14:10:53.300Z,99592.16
2022-10-15T14:13:23.164Z,99585.97
2022-10-15T14:16:05.238Z,99586.94
2022-10-15T14:18:39.469Z,99596.94
2022-10-15T14:21:13.993Z,99581.91
2022-10-15T14:23:44.428Z,99598.19
2022-10-15T14:26:16.805Z,99598.34
2022-10-15T14:28:55.865Z,99595.81
2022-10-15T14:31:33.116Z,99589.63
2022-10-15T14:34:05.448Z,99586.28
2022-10-15T14:36:44.382Z,99575.44
2022-10-15T14:39:29.396Z,99579.25
2022-10-15T14:42:00.525Z,99583.31
2022-10-15T14:44:43.308Z,99587.66
2022-10-15T14:47:20.892Z,99592.84
2022-10-15T14:49:54.147Z,99599.47
2022-10-15T14:52:24.051Z,99606.78
2022-10-15T14:55:05.097Z,99605.78
2022-10-15T14:57:38.797Z,99612.97
2022-10-15T15:00:16.713Z,99615.63
2022-10-15T15:02:46.494Z,99615.63
2022-10-15T15:05:28.999Z,99613.22
2022-10-15T15:08:04.468Z,99608.72
2022-10-15T15:10:36.194Z,99610.28
2022-10-15T15:13:06.535Z,99617.88
2022-10-15T15:15:36.307Z,99606.94
2022-10-15T15:18:06.072Z,99634.72
2022-10-15T15:20:38.226Z,99646.25
2022-10-15T15:23:08.330Z,99641.47
2022-10-15T15:25:38.569Z,99644.84
2022-10-15T15:28:11.844Z,99652.41
2022-10-15T15:30:43.655Z,99650.44
2022-10-15T15:33:14.682Z,99653.09
2022-10-15T15:35:51.151Z,99642.56
2022-10-15T15:38:21.613Z,99647.16
2022-10-15T15:40:51.996Z,99655.59
2022-10-15T15:43:21.875Z,99662.88
2022-10-15T15:45:51.452Z,99664.97
2022-10-15T15:48:21.091Z,99662.44
2022-10-15T15:50:53.223Z,99660.16
2022-10-15T15:53:22.744Z,99673.16
2022-10-15T15:55:52.243Z,99679.16
2022-10-15T15:58:21.783Z,99681.84
2022-10-15T16:00:51.370Z,99689.13
2022-10-15T16:03:20.882Z,99690.25
2022-10-15T16:05:53.758Z,99696.09
2022-10-15T16:08:23.437Z,99701.00
2022-10-15T16:10:52.952Z,99695.22
2022-10-15T16:13:22.637Z,99698.88
2022-10-15T16:15:52.368Z,99701.91
2022-10-15T16:18:21.984Z,99702.06
2022-10-15T16:20:54.154Z,99694.34
2022-10-15T16:23:23.732Z,99697.38
2022-10-15T16:25:54.544Z,99707.06
2022-10-15T16:28:24.230Z,99707.75
2022-10-15T16:30:53.979Z,99724.03
2022-10-15T16:33:23.524Z,99722.84
2022-10-15T16:35:58.684Z,99739.97
2022-10-15T16:38:28.198Z,99735.47
2022-10-15T16:40:57.736Z,99736.59
2022-10-15T16:43:27.424Z,99736.69
2022-10-15T16:46:00.284Z,99756.47
2022-10-15T16:48:29.992Z,99754.78
2022-10-15T16:51:08.523Z,99755.03
2022-10-15T16:53:39.303Z,99766.91
2022-10-15T16:56:11.544Z,99773.94
2022-10-15T16:58:41.258Z,99772.94
2022-10-15T17:01:13.680Z,99783.16
2022-10-15T17:03:43.948Z,99793.06
2022-10-15T17:06:18.492Z,99807.38
2022-10-15T17:08:50.262Z,99808.22
2022-10-15T17:11:21.265Z,99812.00
2022-10-15T17:13:52.950Z,99818.56
2022-10-15T17:16:24.894Z,99814.06
2022-10-15T17:18:54.957Z,99826.66
2022-10-15T17:21:30.009Z,99831.25
2022-10-15T17:24:01.158Z,99840.34
2022-10-15T17:26:33.321Z,99836.97
2022-10-15T17:29:03.016Z,99844.09
2022-10-15T17:31:33.653Z,99852.34
2022-10-15T17:34:05.122Z,99863.84
2022-10-15T17:36:42.929Z,99869.31
2022-10-15T17:39:13.099Z,99879.09
2022-10-15T17:41:43.001Z,99887.09
2022-10-15T17:44:13.447Z,99898.59
2022-10-15T17:46:43.358Z,99892.66
2022-10-15T17:49:18.019Z,99908.13
2022-10-15T17:51:50.204Z,99915.16
2022-10-15T17:54:19.765Z,99920.16
2022-10-15T17:56:49.925Z,99910.81
2022-10-15T17:59:19.509Z,99909.94
2022-10-15T18:02:04.491Z,99915.28
2022-10-15T18:04:41.225Z,99902.19
2022-10-15T18:07:14.698Z,99909.34
2022-10-15T18:09:44.533Z,99908.63
2022-10-15T18:12:14.680Z,99911.53
2022-10-15T18:14:44.207Z,99918.56
2022-10-15T18:17:15.349Z,99931.88
2022-10-15T18:19:45.105Z,99927.41
2022-10-15T18:22:17.233Z,99930.78
2022-10-15T18:24:46.797Z,99929.69
2022-10-15T18:27:16.334Z,99930.66
2022-10-15T18:29:45.884Z,99927.50
2022-10-15T18:32:15.396Z,99933.06
2022-10-15T18:34:45.034Z,99935.09
2022-10-15T18:37:17.318Z,99937.25
2022-10-15T18:39:46.851Z,99940.19
2022-10-15T18:42:16.471Z,99940.44
2022-10-15T18:44:46.204Z,99944.28
2022-10-15T18:47:15.741Z,99952.38
2022-10-15T18:49:47.717Z,99946.56
2022-10-15T18:52:21.890Z,99938.69
2022-10-15T18:55:04.762Z,99946.06
2022-10-15T18:57:36.841Z,99951.41
2022-10-15T19:00:08.034Z,99955.25
2022-10-15T19:02:37.639Z,99957.28
2022-10-15T19:05:08.016Z,99951.13
2022-10-15T19:07:40.242Z,99949.78
2022-10-15T19:10:10.766Z,99953.53
2022-10-15T19:12:40.298Z,99944.78
2022-10-15T19:15:11.718Z,99941.41
2022-10-15T19:17:41.440Z,99956.97
2022-10-15T19:20:12.296Z,99960.72
2022-10-15T19:22:45.473Z,99962.03
2022-10-15T19:25:15.093Z,99966.59
2022-10-15T19:27:44.667Z,99978.41
2022-10-15T19:30:14.560Z,99979.34
2022-10-15T19:32:44.627Z,99995.78
2022-10-15T19:35:14.172Z,99987.16
2022-10-15T19:37:46.285Z,99982.81
2022-10-15T19:40:15.842Z,99991.75
2022-10-15T19:42:45.357Z,99992.72
2022-10-15T19:48:04.490Z,99992.19
2022-10-15T19:50:34.104Z,100004.53
2022-10-15T19:53:16.295Z,100003.91
2022-10-15T19:55:47.242Z,99996.06
2022-10-15T19:58:16.835Z,99993.41
2022-10-15T20:00:51.266Z,99995.22
2022-10-15T20:03:21.209Z,100001.50
2022-10-15T20:05:50.822Z,99998.19
2022-10-15T20:08:23.169Z,100005.44
2022-10-15T20:10:54.059Z,100005.44
2022-10-15T20:13:25.815Z,99996.72
2022-10-15T20:15:56.867Z,100003.09
2022-10-15T20:18:26.507Z,100005.03
2022-10-15T20:20:56.168Z,100013.22
2022-10-15T20:23:28.796Z,100014.28
2022-10-15T20:25:58.305Z,100022.34
2022-10-15T20:28:27.898Z,100017.88
2022-10-15T20:30:57.565Z,100033.81
2022-10-15T20:33:28.669Z,100032.97
2022-10-15T20:35:58.192Z,100037.44
2022-10-15T20:38:30.492Z,100032.13
2022-10-15T20:41:00.164Z,100032.88
2022-10-15T20:43:29.733Z,100039.69
2022-10-15T20:45:59.264Z,100042.47
2022-10-15T20:48:29.315Z,100037.88
2022-10-15T20:50:58.942Z,100043.97
2022-10-15T20:53:32.287Z,100050.19
2022-10-15T20:56:02.295Z,100051.06
2022-10-15T20:58:32.386Z,100074.09
2022-10-15T21:01:02.755Z,100074.69
2022-10-15T21:03:32.920Z,100066.72
2022-10-15T21:06:02.611Z,100069.25
2022-10-15T21:08:34.806Z,100066.91
2022-10-15T21:11:05.400Z,100077.00
2022-10-15T21:13:35.200Z,100082.41
2022-10-15T21:16:06.109Z,100084.66
2022-10-15T21:18:36.535Z,100076.56
2022-10-15T21:21:08.212Z,100087.06
2022-10-15T21:23:41.308Z,100087.19
2022-10-15T21:26:12.597Z,100091.66
2022-10-15T21:28:42.427Z,100095.28
2022-10-15T21:31:14.030Z,100099.72
2022-10-15T21:33:43.936Z,100093.56
2022-10-15T21:36:15.014Z,100099.84
2022-10-15T21:38:47.155Z,100097.31
2022-10-15T21:41:16.673Z,100104.44
2022-10-15T21:43:46.291Z,100100.88
2022-10-15T21:46:16.813Z,100109.75
2022-10-15T21:48:46.960Z,100107.16
2022-10-15T21:51:21.130Z,100111.63
2022-10-15T21:53:53.292Z,100118.00
2022-10-15T21:56:23.436Z,100126.81
2022-10-15T21:58:54.489Z,100122.34
2022-10-15T22:01:26.150Z,100127.03
2022-10-15T22:04:00.589Z,100127.13
2022-10-15T22:06:30.480Z,100125.34
2022-10-15T22:09:03.658Z,100127.03
2022-10-15T22:11:34.823Z,100121.81
2022-10-15T22:14:06.252Z,100114.06
2022-10-15T22:16:38.272Z,100117.81
2022-10-15T22:19:08.838Z,100116.09
2022-10-15T22:21:39.882Z,100117.81
2022-10-15T22:24:15.135Z,100126.72
2022-10-15T22:26:46.992Z,100120.75
2022-10-15T22:29:20.649Z,100118.94
2022-10-15T22:31:50.623Z,100124.38
2022-10-15T22:34:20.686Z,100121.81
2022-10-15T22:36:50.339Z,100121.94
2022-10-15T22:39:22.598Z,100123.63
2022-10-15T22:41:52.190Z,100111.22
2022-10-15T22:44:23.338Z,100100.59
2022-10-15T22:46:53.319Z,100109.50
2022-10-15T22:49:25.530Z,100116.75
2022-10-15T22:51:55.396Z,100120.25
2022-10-15T22:54:27.562Z,100122.25
2022-10-15T22:56:57.156Z,100116.31
2022-10-15T22:59:26.952Z,100127.75
2022-10-15T23:01:56.686Z,100126.06
2022-10-15T23:04:26.288Z,100129.66
2022-10-15T23:06:55.780Z,100124.56
2022-10-15T23:09:27.922Z,100124.56
2022-10-15T23:11:57.486Z,100130.84
2022-10-15T23:14:27.085Z,100130.84
2022-10-15T23:16:56.739Z,100129.03
2022-10-15T23:19:26.412Z,100126.38
2022-10-15T23:21:57.693Z,100130.72
2022-10-15T23:24:30.038Z,100132.53
2022-10-15T23:26:59.600Z,100139.53
2022-10-15T23:29:29.702Z,100139.75
2022-10-15T23:31:59.286Z,100136.44
2022-10-15T23:34:29.139Z,100133.78
2022-10-15T23:36:58.699Z,100138.25
2022-10-15T23:39:30.963Z,100139.00
2022-10-15T23:42:00.700Z,100136.00
2022-10-15T23:44:30.289Z,100145.84
2022-10-15T23:46:59.884Z,100138.94
2022-10-15T23:49:29.524Z,100129.91
2022-10-15T23:51:59.529Z,100136.00
2022-10-15T23:54:31.773Z,100135.06
2022-10-15T23:57:01.388Z,100138.94
2022-10-15T23:59:30.923Z,100142.84
